sensor_id;sensor_type;location;lat;lon;timestamp;P1;durP1;ratioP1;P2;durP2;ratioP2
14776;SDS011;7480;43.124;25.686;2023-07-31T00:01:32;3.90;;;3.53;;
14776;SDS011;7480;43.124;25.686;2023-07-31T00:03:59;4.63;;;3.93;;
14776;SDS011;7480;43.124;25.686;2023-07-31T00:06:25;4.13;;;3.80;;
14776;SDS011;7480;43.124;25.686;2023-07-31T00:08:52;4.47;;;4.07;;
14776;SDS011;7480;43.124;25.686;2023-07-31T00:11:19;4.03;;;3.67;;
14776;SDS011;7480;43.124;25.686;2023-07-31T00:13:45;3.90;;;3.60;;
14776;SDS011;7480;43.124;25.686;2023-07-31T00:16:12;4.20;;;3.90;;
14776;SDS011;7480;43.124;25.686;2023-07-31T00:18:39;5.70;;;4.33;;
14776;SDS011;7480;43.124;25.686;2023-07-31T00:21:05;5.45;;;4.93;;
14776;SDS011;7480;43.124;25.686;2023-07-31T00:23:32;5.70;;;5.20;;
14776;SDS011;7480;43.124;25.686;2023-07-31T00:25:59;4.97;;;4.47;;
14776;SDS011;7480;43.124;25.686;2023-07-31T00:28:26;4.77;;;4.43;;
14776;SDS011;7480;43.124;25.686;2023-07-31T00:30:55;4.73;;;4.33;;
14776;SDS011;7480;43.124;25.686;2023-07-31T00:33:22;5.15;;;4.75;;
14776;SDS011;7480;43.124;25.686;2023-07-31T00:35:48;5.57;;;4.83;;
14776;SDS011;7480;43.124;25.686;2023-07-31T00:38:15;5.28;;;4.78;;
14776;SDS011;7480;43.124;25.686;2023-07-31T00:40:42;5.20;;;4.37;;
14776;SDS011;7480;43.124;25.686;2023-07-31T00:43:08;5.10;;;4.70;;
14776;SDS011;7480;43.124;25.686;2023-07-31T00:45:35;5.22;;;4.82;;
14776;SDS011;7480;43.124;25.686;2023-07-31T00:48:02;6.40;;;5.55;;
14776;SDS011;7480;43.124;25.686;2023-07-31T00:50:29;5.93;;;5.43;;
14776;SDS011;7480;43.124;25.686;2023-07-31T00:52:56;5.30;;;4.87;;
14776;SDS011;7480;43.124;25.686;2023-07-31T00:55:22;5.68;;;5.20;;
14776;SDS011;7480;43.124;25.686;2023-07-31T00:57:49;7.25;;;5.35;;
14776;SDS011;7480;43.124;25.686;2023-07-31T01:00:19;6.00;;;5.50;;
14776;SDS011;7480;43.124;25.686;2023-07-31T01:02:45;6.38;;;5.88;;
14776;SDS011;7480;43.124;25.686;2023-07-31T01:05:12;6.10;;;5.60;;
14776;SDS011;7480;43.124;25.686;2023-07-31T01:07:42;6.18;;;5.60;;
14776;SDS011;7480;43.124;25.686;2023-07-31T01:10:21;6.00;;;5.55;;
14776;SDS011;7480;43.124;25.686;2023-07-31T01:12:50;6.80;;;6.20;;
14776;SDS011;7480;43.124;25.686;2023-07-31T01:15:17;6.93;;;6.32;;
14776;SDS011;7480;43.124;25.686;2023-07-31T01:17:44;7.18;;;6.57;;
14776;SDS011;7480;43.124;25.686;2023-07-31T01:20:15;6.43;;;5.93;;
14776;SDS011;7480;43.124;25.686;2023-07-31T01:22:59;7.25;;;6.65;;
14776;SDS011;7480;43.124;25.686;2023-07-31T01:29:08;7.77;;;7.07;;
14776;SDS011;7480;43.124;25.686;2023-07-31T01:31:23;7.60;;;7.00;;
14776;SDS011;7480;43.124;25.686;2023-07-31T01:33:52;7.72;;;6.95;;
14776;SDS011;7480;43.124;25.686;2023-07-31T01:36:20;8.57;;;7.87;;
14776;SDS011;7480;43.124;25.686;2023-07-31T01:38:47;8.75;;;8.02;;
14776;SDS011;7480;43.124;25.686;2023-07-31T01:41:16;8.80;;;8.02;;
14776;SDS011;7480;43.124;25.686;2023-07-31T01:43:44;9.13;;;8.43;;
14776;SDS011;7480;43.124;25.686;2023-07-31T01:46:11;9.15;;;8.35;;
14776;SDS011;7480;43.124;25.686;2023-07-31T01:48:38;9.40;;;8.60;;
14776;SDS011;7480;43.124;25.686;2023-07-31T01:51:05;9.60;;;8.77;;
14776;SDS011;7480;43.124;25.686;2023-07-31T01:53:31;10.35;;;8.65;;
14776;SDS011;7480;43.124;25.686;2023-07-31T01:55:58;9.60;;;8.80;;
14776;SDS011;7480;43.124;25.686;2023-07-31T01:58:25;10.48;;;9.48;;
14776;SDS011;7480;43.124;25.686;2023-07-31T02:00:52;10.07;;;9.18;;
14776;SDS011;7480;43.124;25.686;2023-07-31T02:03:18;7.70;;;6.40;;
14776;SDS011;7480;43.124;25.686;2023-07-31T02:05:46;6.50;;;6.00;;
14776;SDS011;7480;43.124;25.686;2023-07-31T02:08:13;6.65;;;6.05;;
14776;SDS011;7480;43.124;25.686;2023-07-31T02:10:40;6.45;;;5.90;;
14776;SDS011;7480;43.124;25.686;2023-07-31T02:13:07;6.75;;;6.10;;
14776;SDS011;7480;43.124;25.686;2023-07-31T02:15:34;6.45;;;5.93;;
14776;SDS011;7480;43.124;25.686;2023-07-31T02:18:01;6.67;;;6.00;;
14776;SDS011;7480;43.124;25.686;2023-07-31T02:20:28;6.95;;;6.30;;
14776;SDS011;7480;43.124;25.686;2023-07-31T02:22:54;8.20;;;6.93;;
14776;SDS011;7480;43.124;25.686;2023-07-31T02:25:21;7.15;;;6.55;;
14776;SDS011;7480;43.124;25.686;2023-07-31T02:27:48;6.93;;;6.35;;
14776;SDS011;7480;43.124;25.686;2023-07-31T02:30:15;6.93;;;5.72;;
14776;SDS011;7480;43.124;25.686;2023-07-31T02:32:41;6.65;;;6.10;;
14776;SDS011;7480;43.124;25.686;2023-07-31T02:35:08;6.53;;;6.00;;
14776;SDS011;7480;43.124;25.686;2023-07-31T02:37:35;6.03;;;5.53;;
14776;SDS011;7480;43.124;25.686;2023-07-31T02:40:02;6.40;;;5.90;;
14776;SDS011;7480;43.124;25.686;2023-07-31T02:42:29;7.40;;;6.77;;
14776;SDS011;7480;43.124;25.686;2023-07-31T02:44:56;8.00;;;7.30;;
14776;SDS011;7480;43.124;25.686;2023-07-31T02:47:22;7.53;;;6.93;;
14776;SDS011;7480;43.124;25.686;2023-07-31T02:49:49;7.40;;;6.70;;
14776;SDS011;7480;43.124;25.686;2023-07-31T02:52:16;7.60;;;6.82;;
14776;SDS011;7480;43.124;25.686;2023-07-31T02:54:42;7.97;;;6.75;;
14776;SDS011;7480;43.124;25.686;2023-07-31T02:57:09;6.97;;;6.43;;
14776;SDS011;7480;43.124;25.686;2023-07-31T02:59:36;7.60;;;6.90;;
14776;SDS011;7480;43.124;25.686;2023-07-31T03:02:03;7.65;;;6.88;;
14776;SDS011;7480;43.124;25.686;2023-07-31T03:04:30;7.93;;;7.27;;
14776;SDS011;7480;43.124;25.686;2023-07-31T03:06:56;8.07;;;7.37;;
14776;SDS011;7480;43.124;25.686;2023-07-31T03:09:23;8.00;;;7.40;;
14776;SDS011;7480;43.124;25.686;2023-07-31T03:11:50;8.20;;;7.43;;
14776;SDS011;7480;43.124;25.686;2023-07-31T03:14:16;9.10;;;7.50;;
14776;SDS011;7480;43.124;25.686;2023-07-31T03:16:43;10.03;;;9.13;;
14776;SDS011;7480;43.124;25.686;2023-07-31T03:19:10;9.47;;;8.63;;
14776;SDS011;7480;43.124;25.686;2023-07-31T03:21:37;9.30;;;8.50;;
14776;SDS011;7480;43.124;25.686;2023-07-31T03:24:03;9.57;;;8.77;;
14776;SDS011;7480;43.124;25.686;2023-07-31T03:26:31;9.03;;;8.30;;
14776;SDS011;7480;43.124;25.686;2023-07-31T03:28:58;8.30;;;7.57;;
14776;SDS011;7480;43.124;25.686;2023-07-31T03:31:25;9.83;;;8.87;;
14776;SDS011;7480;43.124;25.686;2023-07-31T03:33:52;9.97;;;9.13;;
14776;SDS011;7480;43.124;25.686;2023-07-31T03:36:18;9.70;;;8.80;;
14776;SDS011;7480;43.124;25.686;2023-07-31T03:38:46;12.87;;;11.80;;
14776;SDS011;7480;43.124;25.686;2023-07-31T03:41:12;12.73;;;11.67;;
14776;SDS011;7480;43.124;25.686;2023-07-31T03:43:39;13.33;;;12.13;;
14776;SDS011;7480;43.124;25.686;2023-07-31T03:46:06;13.80;;;12.63;;
14776;SDS011;7480;43.124;25.686;2023-07-31T03:48:32;14.90;;;13.70;;
14776;SDS011;7480;43.124;25.686;2023-07-31T03:50:59;16.02;;;14.65;;
14776;SDS011;7480;43.124;25.686;2023-07-31T03:53:26;14.70;;;13.43;;
14776;SDS011;7480;43.124;25.686;2023-07-31T03:55:52;15.80;;;14.33;;
14776;SDS011;7480;43.124;25.686;2023-07-31T03:58:19;15.80;;;14.47;;
14776;SDS011;7480;43.124;25.686;2023-07-31T04:00:46;15.23;;;13.83;;
14776;SDS011;7480;43.124;25.686;2023-07-31T04:03:13;15.80;;;14.50;;
14776;SDS011;7480;43.124;25.686;2023-07-31T04:05:40;16.20;;;14.70;;
14776;SDS011;7480;43.124;25.686;2023-07-31T04:08:07;16.87;;;15.27;;
14776;SDS011;7480;43.124;25.686;2023-07-31T04:10:33;15.87;;;14.43;;
14776;SDS011;7480;43.124;25.686;2023-07-31T04:13:00;17.13;;;15.50;;
14776;SDS011;7480;43.124;25.686;2023-07-31T04:15:27;16.60;;;15.10;;
14776;SDS011;7480;43.124;25.686;2023-07-31T04:17:53;16.07;;;14.77;;
14776;SDS011;7480;43.124;25.686;2023-07-31T04:20:20;16.42;;;14.85;;
14776;SDS011;7480;43.124;25.686;2023-07-31T04:22:47;14.93;;;13.52;;
14776;SDS011;7480;43.124;25.686;2023-07-31T04:25:14;13.87;;;12.67;;
14776;SDS011;7480;43.124;25.686;2023-07-31T04:27:41;14.47;;;13.07;;
14776;SDS011;7480;43.124;25.686;2023-07-31T04:30:08;14.35;;;13.15;;
14776;SDS011;7480;43.124;25.686;2023-07-31T04:32:35;12.50;;;11.43;;
14776;SDS011;7480;43.124;25.686;2023-07-31T04:35:02;12.55;;;11.35;;
14776;SDS011;7480;43.124;25.686;2023-07-31T04:37:29;13.27;;;11.98;;
14776;SDS011;7480;43.124;25.686;2023-07-31T04:39:56;12.73;;;11.63;;
14776;SDS011;7480;43.124;25.686;2023-07-31T04:42:23;12.10;;;11.02;;
14776;SDS011;7480;43.124;25.686;2023-07-31T04:44:50;11.82;;;10.73;;
14776;SDS011;7480;43.124;25.686;2023-07-31T04:47:19;11.23;;;10.27;;
14776;SDS011;7480;43.124;25.686;2023-07-31T04:49:46;11.77;;;10.68;;
14776;SDS011;7480;43.124;25.686;2023-07-31T04:52:13;11.52;;;10.50;;
14776;SDS011;7480;43.124;25.686;2023-07-31T04:54:39;10.75;;;9.70;;
14776;SDS011;7480;43.124;25.686;2023-07-31T04:57:06;10.93;;;9.82;;
14776;SDS011;7480;43.124;25.686;2023-07-31T04:59:33;10.27;;;9.27;;
14776;SDS011;7480;43.124;25.686;2023-07-31T05:01:59;10.95;;;10.05;;
14776;SDS011;7480;43.124;25.686;2023-07-31T05:04:26;10.57;;;9.57;;
14776;SDS011;7480;43.124;25.686;2023-07-31T05:06:53;10.88;;;9.75;;
14776;SDS011;7480;43.124;25.686;2023-07-31T05:09:20;10.02;;;9.23;;
14776;SDS011;7480;43.124;25.686;2023-07-31T05:11:46;10.57;;;9.63;;
14776;SDS011;7480;43.124;25.686;2023-07-31T05:14:13;10.52;;;9.63;;
14776;SDS011;7480;43.124;25.686;2023-07-31T05:16:40;10.57;;;9.43;;
14776;SDS011;7480;43.124;25.686;2023-07-31T05:19:07;10.93;;;9.93;;
14776;SDS011;7480;43.124;25.686;2023-07-31T05:21:34;11.05;;;10.05;;
14776;SDS011;7480;43.124;25.686;2023-07-31T05:24:00;14.07;;;9.48;;
14776;SDS011;7480;43.124;25.686;2023-07-31T05:26:27;11.13;;;9.70;;
14776;SDS011;7480;43.124;25.686;2023-07-31T05:28:54;10.93;;;9.43;;
14776;SDS011;7480;43.124;25.686;2023-07-31T05:31:21;11.00;;;9.57;;
14776;SDS011;7480;43.124;25.686;2023-07-31T05:33:48;11.40;;;10.30;;
14776;SDS011;7480;43.124;25.686;2023-07-31T05:36:17;10.68;;;9.77;;
14776;SDS011;7480;43.124;25.686;2023-07-31T05:38:43;11.20;;;10.18;;
14776;SDS011;7480;43.124;25.686;2023-07-31T05:41:11;10.85;;;9.75;;
14776;SDS011;7480;43.124;25.686;2023-07-31T05:43:38;12.32;;;11.18;;
14776;SDS011;7480;43.124;25.686;2023-07-31T05:46:05;11.18;;;10.20;;
14776;SDS011;7480;43.124;25.686;2023-07-31T05:48:33;11.85;;;10.85;;
14776;SDS011;7480;43.124;25.686;2023-07-31T05:51:02;12.20;;;10.82;;
14776;SDS011;7480;43.124;25.686;2023-07-31T05:53:29;11.35;;;10.25;;
14776;SDS011;7480;43.124;25.686;2023-07-31T05:55:56;11.23;;;10.18;;
14776;SDS011;7480;43.124;25.686;2023-07-31T05:58:22;11.65;;;10.45;;
14776;SDS011;7480;43.124;25.686;2023-07-31T06:00:49;11.30;;;10.25;;
14776;SDS011;7480;43.124;25.686;2023-07-31T06:03:16;12.23;;;11.10;;
14776;SDS011;7480;43.124;25.686;2023-07-31T06:05:43;11.77;;;10.70;;
14776;SDS011;7480;43.124;25.686;2023-07-31T06:08:09;11.88;;;10.80;;
14776;SDS011;7480;43.124;25.686;2023-07-31T06:10:36;11.93;;;10.68;;
14776;SDS011;7480;43.124;25.686;2023-07-31T06:13:03;12.68;;;11.43;;
14776;SDS011;7480;43.124;25.686;2023-07-31T06:15:29;13.57;;;12.20;;
14776;SDS011;7480;43.124;25.686;2023-07-31T06:17:56;12.32;;;11.05;;
14776;SDS011;7480;43.124;25.686;2023-07-31T06:20:24;12.27;;;11.10;;
14776;SDS011;7480;43.124;25.686;2023-07-31T06:22:50;11.98;;;10.88;;
14776;SDS011;7480;43.124;25.686;2023-07-31T06:25:17;14.50;;;11.38;;
14776;SDS011;7480;43.124;25.686;2023-07-31T06:27:44;11.27;;;10.27;;
14776;SDS011;7480;43.124;25.686;2023-07-31T06:30:11;12.63;;;11.52;;
14776;SDS011;7480;43.124;25.686;2023-07-31T06:32:37;13.17;;;11.87;;
14776;SDS011;7480;43.124;25.686;2023-07-31T06:35:04;13.27;;;12.05;;
14776;SDS011;7480;43.124;25.686;2023-07-31T06:37:32;13.35;;;11.98;;
14776;SDS011;7480;43.124;25.686;2023-07-31T06:40:01;13.10;;;11.90;;
14776;SDS011;7480;43.124;25.686;2023-07-31T06:42:28;13.07;;;11.87;;
14776;SDS011;7480;43.124;25.686;2023-07-31T06:44:55;12.57;;;11.43;;
14776;SDS011;7480;43.124;25.686;2023-07-31T06:47:22;13.50;;;12.20;;
14776;SDS011;7480;43.124;25.686;2023-07-31T06:49:48;12.25;;;11.15;;
14776;SDS011;7480;43.124;25.686;2023-07-31T06:52:15;12.90;;;11.70;;
14776;SDS011;7480;43.124;25.686;2023-07-31T06:54:42;13.52;;;12.32;;
14776;SDS011;7480;43.124;25.686;2023-07-31T06:57:08;13.93;;;12.63;;
14776;SDS011;7480;43.124;25.686;2023-07-31T06:59:35;12.57;;;11.48;;
14776;SDS011;7480;43.124;25.686;2023-07-31T07:02:02;13.27;;;12.02;;
14776;SDS011;7480;43.124;25.686;2023-07-31T07:04:32;13.95;;;12.70;;
14776;SDS011;7480;43.124;25.686;2023-07-31T07:06:58;13.57;;;12.30;;
14776;SDS011;7480;43.124;25.686;2023-07-31T07:09:25;13.00;;;11.80;;
14776;SDS011;7480;43.124;25.686;2023-07-31T07:11:52;13.35;;;11.90;;
14776;SDS011;7480;43.124;25.686;2023-07-31T07:14:19;13.50;;;12.03;;
14776;SDS011;7480;43.124;25.686;2023-07-31T07:16:50;12.50;;;11.30;;
14776;SDS011;7480;43.124;25.686;2023-07-31T07:19:17;13.43;;;12.03;;
14776;SDS011;7480;43.124;25.686;2023-07-31T07:21:44;13.03;;;11.77;;
14776;SDS011;7480;43.124;25.686;2023-07-31T07:24:11;12.90;;;11.70;;
14776;SDS011;7480;43.124;25.686;2023-07-31T07:26:37;12.73;;;11.45;;
14776;SDS011;7480;43.124;25.686;2023-07-31T07:29:04;11.63;;;10.60;;
14776;SDS011;7480;43.124;25.686;2023-07-31T07:31:34;13.07;;;11.80;;
14776;SDS011;7480;43.124;25.686;2023-07-31T07:34:00;12.50;;;11.30;;
14776;SDS011;7480;43.124;25.686;2023-07-31T07:36:28;13.05;;;11.85;;
14776;SDS011;7480;43.124;25.686;2023-07-31T07:38:55;11.52;;;10.52;;
14776;SDS011;7480;43.124;25.686;2023-07-31T07:41:22;13.13;;;11.82;;
14776;SDS011;7480;43.124;25.686;2023-07-31T07:43:49;12.35;;;11.15;;
14776;SDS011;7480;43.124;25.686;2023-07-31T07:46:15;11.73;;;10.48;;
14776;SDS011;7480;43.124;25.686;2023-07-31T07:48:42;12.30;;;11.10;;
14776;SDS011;7480;43.124;25.686;2023-07-31T07:51:09;12.30;;;11.00;;
14776;SDS011;7480;43.124;25.686;2023-07-31T07:53:36;11.40;;;10.30;;
14776;SDS011;7480;43.124;25.686;2023-07-31T07:56:02;12.18;;;11.07;;
14776;SDS011;7480;43.124;25.686;2023-07-31T07:58:29;11.80;;;10.40;;
14776;SDS011;7480;43.124;25.686;2023-07-31T08:00:56;12.07;;;10.57;;
14776;SDS011;7480;43.124;25.686;2023-07-31T08:03:23;12.45;;;10.55;;
14776;SDS011;7480;43.124;25.686;2023-07-31T08:05:49;15.20;;;9.65;;
14776;SDS011;7480;43.124;25.686;2023-07-31T08:08:16;11.15;;;9.98;;
14776;SDS011;7480;43.124;25.686;2023-07-31T08:10:43;10.73;;;9.50;;
14776;SDS011;7480;43.124;25.686;2023-07-31T08:13:10;10.07;;;9.18;;
14776;SDS011;7480;43.124;25.686;2023-07-31T08:15:37;10.55;;;9.63;;
14776;SDS011;7480;43.124;25.686;2023-07-31T08:18:04;11.27;;;10.05;;
14776;SDS011;7480;43.124;25.686;2023-07-31T08:20:31;10.73;;;9.57;;
14776;SDS011;7480;43.124;25.686;2023-07-31T08:22:58;9.85;;;8.85;;
14776;SDS011;7480;43.124;25.686;2023-07-31T08:25:25;9.73;;;8.88;;
14776;SDS011;7480;43.124;25.686;2023-07-31T08:27:51;9.50;;;8.52;;
14776;SDS011;7480;43.124;25.686;2023-07-31T08:30:19;13.20;;;9.23;;
14776;SDS011;7480;43.124;25.686;2023-07-31T08:32:47;10.13;;;9.00;;
14776;SDS011;7480;43.124;25.686;2023-07-31T08:35:15;10.25;;;7.85;;
14776;SDS011;7480;43.124;25.686;2023-07-31T08:37:42;9.32;;;8.30;;
14776;SDS011;7480;43.124;25.686;2023-07-31T08:40:09;8.40;;;7.60;;
14776;SDS011;7480;43.124;25.686;2023-07-31T08:42:47;8.77;;;7.80;;
14776;SDS011;7480;43.124;25.686;2023-07-31T08:45:18;8.10;;;7.30;;
14776;SDS011;7480;43.124;25.686;2023-07-31T08:47:46;8.05;;;7.25;;
14776;SDS011;7480;43.124;25.686;2023-07-31T08:50:15;8.63;;;7.82;;
14776;SDS011;7480;43.124;25.686;2023-07-31T08:52:41;9.40;;;7.75;;
14776;SDS011;7480;43.124;25.686;2023-07-31T08:55:08;7.47;;;6.85;;
14776;SDS011;7480;43.124;25.686;2023-07-31T08:57:36;8.52;;;7.45;;
14776;SDS011;7480;43.124;25.686;2023-07-31T09:00:04;6.55;;;5.95;;
14776;SDS011;7480;43.124;25.686;2023-07-31T09:02:37;7.88;;;7.15;;
14776;SDS011;7480;43.124;25.686;2023-07-31T09:05:07;7.35;;;6.63;;
14776;SDS011;7480;43.124;25.686;2023-07-31T09:07:35;7.30;;;6.60;;
14776;SDS011;7480;43.124;25.686;2023-07-31T09:10:03;6.50;;;5.90;;
14776;SDS011;7480;43.124;25.686;2023-07-31T09:12:30;6.50;;;5.90;;
14776;SDS011;7480;43.124;25.686;2023-07-31T09:14:57;7.15;;;6.10;;
14776;SDS011;7480;43.124;25.686;2023-07-31T09:17:28;6.90;;;6.30;;
14776;SDS011;7480;43.124;25.686;2023-07-31T09:22:45;6.93;;;6.30;;
14776;SDS011;7480;43.124;25.686;2023-07-31T09:25:22;6.78;;;6.13;;
14776;SDS011;7480;43.124;25.686;2023-07-31T09:33:13;7.68;;;6.97;;
14776;SDS011;7480;43.124;25.686;2023-07-31T09:35:40;7.00;;;6.40;;
14776;SDS011;7480;43.124;25.686;2023-07-31T09:38:09;6.75;;;6.15;;
14776;SDS011;7480;43.124;25.686;2023-07-31T09:40:37;7.22;;;6.35;;
14776;SDS011;7480;43.124;25.686;2023-07-31T09:43:21;5.90;;;5.40;;
14776;SDS011;7480;43.124;25.686;2023-07-31T09:45:52;5.82;;;5.32;;
14776;SDS011;7480;43.124;25.686;2023-07-31T09:48:23;6.13;;;5.55;;
14776;SDS011;7480;43.124;25.686;2023-07-31T09:50:52;5.55;;;5.00;;
14776;SDS011;7480;43.124;25.686;2023-07-31T09:53:19;6.18;;;5.25;;
14776;SDS011;7480;43.124;25.686;2023-07-31T09:55:45;5.20;;;4.78;;
14776;SDS011;7480;43.124;25.686;2023-07-31T09:58:12;7.95;;;5.40;;
14776;SDS011;7480;43.124;25.686;2023-07-31T10:00:39;5.38;;;4.97;;
14776;SDS011;7480;43.124;25.686;2023-07-31T10:03:07;3.80;;;3.45;;
14776;SDS011;7480;43.124;25.686;2023-07-31T10:05:43;6.07;;;5.07;;
14776;SDS011;7480;43.124;25.686;2023-07-31T10:08:14;5.43;;;4.93;;
14776;SDS011;7480;43.124;25.686;2023-07-31T10:10:45;5.78;;;5.22;;
14776;SDS011;7480;43.124;25.686;2023-07-31T10:13:12;5.97;;;4.95;;
14776;SDS011;7480;43.124;25.686;2023-07-31T10:15:39;5.25;;;4.75;;
14776;SDS011;7480;43.124;25.686;2023-07-31T10:18:08;5.72;;;5.07;;
14776;SDS011;7480;43.124;25.686;2023-07-31T10:20:35;5.20;;;4.80;;
14776;SDS011;7480;43.124;25.686;2023-07-31T10:23:02;5.45;;;4.95;;
14776;SDS011;7480;43.124;25.686;2023-07-31T10:25:29;5.85;;;5.15;;
14776;SDS011;7480;43.124;25.686;2023-07-31T10:27:56;5.45;;;4.82;;
14776;SDS011;7480;43.124;25.686;2023-07-31T10:30:26;6.07;;;5.47;;
14776;SDS011;7480;43.124;25.686;2023-07-31T10:32:54;5.60;;;5.10;;
14776;SDS011;7480;43.124;25.686;2023-07-31T10:35:21;5.88;;;5.28;;
14776;SDS011;7480;43.124;25.686;2023-07-31T10:37:51;5.60;;;5.10;;
14776;SDS011;7480;43.124;25.686;2023-07-31T10:40:19;6.22;;;5.72;;
14776;SDS011;7480;43.124;25.686;2023-07-31T10:45:27;5.78;;;5.18;;
14776;SDS011;7480;43.124;25.686;2023-07-31T10:48:04;5.90;;;5.40;;
14776;SDS011;7480;43.124;25.686;2023-07-31T10:50:34;6.30;;;5.70;;
14776;SDS011;7480;43.124;25.686;2023-07-31T10:53:04;6.35;;;5.85;;
14776;SDS011;7480;43.124;25.686;2023-07-31T10:55:33;6.57;;;6.00;;
14776;SDS011;7480;43.124;25.686;2023-07-31T10:58:07;6.68;;;6.03;;
14776;SDS011;7480;43.124;25.686;2023-07-31T11:00:39;6.78;;;6.18;;
14776;SDS011;7480;43.124;25.686;2023-07-31T11:03:08;6.95;;;6.35;;
14776;SDS011;7480;43.124;25.686;2023-07-31T11:08:13;8.13;;;7.25;;
14776;SDS011;7480;43.124;25.686;2023-07-31T11:15:55;7.32;;;6.65;;
14776;SDS011;7480;43.124;25.686;2023-07-31T11:18:22;7.07;;;6.43;;
14776;SDS011;7480;43.124;25.686;2023-07-31T11:20:49;6.82;;;6.22;;
14776;SDS011;7480;43.124;25.686;2023-07-31T11:23:16;5.72;;;5.20;;
14776;SDS011;7480;43.124;25.686;2023-07-31T11:25:43;5.72;;;5.30;;
14776;SDS011;7480;43.124;25.686;2023-07-31T11:28:15;6.22;;;5.72;;
14776;SDS011;7480;43.124;25.686;2023-07-31T11:30:43;6.03;;;5.53;;
14776;SDS011;7480;43.124;25.686;2023-07-31T11:33:11;5.80;;;5.22;;
14776;SDS011;7480;43.124;25.686;2023-07-31T11:38:22;7.13;;;5.38;;
14776;SDS011;7480;43.124;25.686;2023-07-31T11:40:50;5.90;;;5.30;;
14776;SDS011;7480;43.124;25.686;2023-07-31T11:43:18;5.70;;;5.20;;
14776;SDS011;7480;43.124;25.686;2023-07-31T11:45:49;5.47;;;4.97;;
14776;SDS011;7480;43.124;25.686;2023-07-31T11:48:21;5.97;;;5.15;;
14776;SDS011;7480;43.124;25.686;2023-07-31T11:50:50;5.55;;;5.15;;
14776;SDS011;7480;43.124;25.686;2023-07-31T11:53:19;5.75;;;5.25;;
14776;SDS011;7480;43.124;25.686;2023-07-31T11:55:48;6.00;;;5.40;;
14776;SDS011;7480;43.124;25.686;2023-07-31T11:58:15;5.80;;;5.30;;
14776;SDS011;7480;43.124;25.686;2023-07-31T12:00:42;5.95;;;5.38;;
14776;SDS011;7480;43.124;25.686;2023-07-31T12:03:09;6.13;;;5.53;;
14776;SDS011;7480;43.124;25.686;2023-07-31T12:05:37;6.30;;;5.65;;
14776;SDS011;7480;43.124;25.686;2023-07-31T12:08:11;6.35;;;5.75;;
14776;SDS011;7480;43.124;25.686;2023-07-31T12:10:38;5.47;;;5.07;;
14776;SDS011;7480;43.124;25.686;2023-07-31T12:13:10;6.00;;;5.55;;
14776;SDS011;7480;43.124;25.686;2023-07-31T12:15:45;6.35;;;5.85;;
14776;SDS011;7480;43.124;25.686;2023-07-31T12:18:15;6.05;;;5.55;;
14776;SDS011;7480;43.124;25.686;2023-07-31T12:20:47;5.70;;;5.20;;
14776;SDS011;7480;43.124;25.686;2023-07-31T12:23:16;6.15;;;5.63;;
14776;SDS011;7480;43.124;25.686;2023-07-31T12:25:44;6.72;;;6.03;;
14776;SDS011;7480;43.124;25.686;2023-07-31T12:28:11;6.00;;;5.50;;
14776;SDS011;7480;43.124;25.686;2023-07-31T12:30:39;6.00;;;5.43;;
14776;SDS011;7480;43.124;25.686;2023-07-31T12:33:13;5.57;;;5.07;;
14776;SDS011;7480;43.124;25.686;2023-07-31T12:35:42;6.13;;;5.63;;
14776;SDS011;7480;43.124;25.686;2023-07-31T12:38:11;6.25;;;5.65;;
14776;SDS011;7480;43.124;25.686;2023-07-31T12:40:39;5.70;;;5.30;;
14776;SDS011;7480;43.124;25.686;2023-07-31T12:43:07;5.97;;;5.47;;
14776;SDS011;7480;43.124;25.686;2023-07-31T12:45:34;5.75;;;5.35;;
14776;SDS011;7480;43.124;25.686;2023-07-31T12:48:01;5.90;;;5.40;;
14776;SDS011;7480;43.124;25.686;2023-07-31T12:50:29;5.63;;;5.13;;
14776;SDS011;7480;43.124;25.686;2023-07-31T12:52:56;5.68;;;5.18;;
14776;SDS011;7480;43.124;25.686;2023-07-31T12:55:23;5.22;;;4.82;;
14776;SDS011;7480;43.124;25.686;2023-07-31T12:57:50;5.88;;;5.35;;
14776;SDS011;7480;43.124;25.686;2023-07-31T13:00:18;6.57;;;5.85;;
14776;SDS011;7480;43.124;25.686;2023-07-31T13:02:45;5.35;;;4.95;;
14776;SDS011;7480;43.124;25.686;2023-07-31T13:05:11;6.15;;;5.65;;
14776;SDS011;7480;43.124;25.686;2023-07-31T13:07:39;6.35;;;5.75;;
14776;SDS011;7480;43.124;25.686;2023-07-31T13:10:06;5.85;;;5.45;;
14776;SDS011;7480;43.124;25.686;2023-07-31T13:12:34;6.63;;;6.03;;
14776;SDS011;7480;43.124;25.686;2023-07-31T13:15:00;6.97;;;6.38;;
14776;SDS011;7480;43.124;25.686;2023-07-31T13:17:27;7.97;;;7.18;;
14776;SDS011;7480;43.124;25.686;2023-07-31T13:19:54;7.78;;;7.10;;
14776;SDS011;7480;43.124;25.686;2023-07-31T13:22:21;8.25;;;7.55;;
14776;SDS011;7480;43.124;25.686;2023-07-31T13:24:47;8.88;;;8.07;;
14776;SDS011;7480;43.124;25.686;2023-07-31T13:27:14;8.27;;;7.28;;
14776;SDS011;7480;43.124;25.686;2023-07-31T13:29:45;8.70;;;6.88;;
14776;SDS011;7480;43.124;25.686;2023-07-31T13:32:12;6.93;;;6.32;;
14776;SDS011;7480;43.124;25.686;2023-07-31T13:34:39;6.60;;;6.00;;
14776;SDS011;7480;43.124;25.686;2023-07-31T13:37:05;6.53;;;5.97;;
14776;SDS011;7480;43.124;25.686;2023-07-31T13:39:32;6.68;;;6.07;;
14776;SDS011;7480;43.124;25.686;2023-07-31T13:42:03;7.07;;;6.47;;
14776;SDS011;7480;43.124;25.686;2023-07-31T13:44:30;7.18;;;6.50;;
14776;SDS011;7480;43.124;25.686;2023-07-31T13:46:57;7.57;;;6.88;;
14776;SDS011;7480;43.124;25.686;2023-07-31T13:49:23;7.40;;;6.70;;
14776;SDS011;7480;43.124;25.686;2023-07-31T13:51:50;9.80;;;6.40;;
14776;SDS011;7480;43.124;25.686;2023-07-31T13:54:17;6.55;;;6.05;;
14776;SDS011;7480;43.124;25.686;2023-07-31T13:56:44;7.53;;;6.93;;
14776;SDS011;7480;43.124;25.686;2023-07-31T13:59:11;8.10;;;7.30;;
14776;SDS011;7480;43.124;25.686;2023-07-31T14:01:38;7.63;;;7.03;;
14776;SDS011;7480;43.124;25.686;2023-07-31T14:04:05;8.15;;;7.45;;
14776;SDS011;7480;43.124;25.686;2023-07-31T14:06:31;8.35;;;7.20;;
14776;SDS011;7480;43.124;25.686;2023-07-31T14:08:58;8.70;;;7.90;;
14776;SDS011;7480;43.124;25.686;2023-07-31T14:11:25;8.15;;;7.35;;
14776;SDS011;7480;43.124;25.686;2023-07-31T14:13:52;7.70;;;7.10;;
14776;SDS011;7480;43.124;25.686;2023-07-31T14:16:19;8.40;;;7.70;;
14776;SDS011;7480;43.124;25.686;2023-07-31T14:18:46;8.43;;;7.70;;
14776;SDS011;7480;43.124;25.686;2023-07-31T14:21:13;8.40;;;7.65;;
14776;SDS011;7480;43.124;25.686;2023-07-31T14:23:40;8.07;;;7.32;;
14776;SDS011;7480;43.124;25.686;2023-07-31T14:26:07;8.57;;;7.03;;
14776;SDS011;7480;43.124;25.686;2023-07-31T14:28:34;8.65;;;7.75;;
14776;SDS011;7480;43.124;25.686;2023-07-31T14:31:00;8.35;;;7.55;;
14776;SDS011;7480;43.124;25.686;2023-07-31T14:33:27;8.20;;;7.50;;
14776;SDS011;7480;43.124;25.686;2023-07-31T14:35:54;8.90;;;8.15;;
14776;SDS011;7480;43.124;25.686;2023-07-31T14:38:20;9.35;;;8.38;;
14776;SDS011;7480;43.124;25.686;2023-07-31T14:40:47;8.93;;;8.13;;
14776;SDS011;7480;43.124;25.686;2023-07-31T14:43:14;8.45;;;7.60;;
14776;SDS011;7480;43.124;25.686;2023-07-31T14:45:41;9.30;;;8.40;;
14776;SDS011;7480;43.124;25.686;2023-07-31T14:48:07;8.98;;;8.18;;
14776;SDS011;7480;43.124;25.686;2023-07-31T14:50:34;10.50;;;9.50;;
14776;SDS011;7480;43.124;25.686;2023-07-31T14:53:01;10.50;;;9.57;;
14776;SDS011;7480;43.124;25.686;2023-07-31T14:55:28;11.95;;;10.75;;
14776;SDS011;7480;43.124;25.686;2023-07-31T14:57:54;12.88;;;11.50;;
14776;SDS011;7480;43.124;25.686;2023-07-31T15:00:21;14.73;;;12.77;;
14776;SDS011;7480;43.124;25.686;2023-07-31T15:02:48;14.75;;;13.23;;
14776;SDS011;7480;43.124;25.686;2023-07-31T15:05:15;15.45;;;13.95;;